Terminal Aerodrome Forecast
Issued by NWS

Home | Current Version | Previous Version | Text Only | Print | Product List | Glossary On
Versions: 1 2 3 4 5 6 7 8 9 10 11 12 13 14 15 16 17 18 19 20 21 22
999
FTUS43 KJKL 301311 AAA
TAFSME
TAF AMD
KSME 301311Z 3013/3112 00000KT P6SM BKN009 BKN015
     FM301500 25006KT P6SM VCTS SCT015CB BKN025
     FM301900 25006KT P6SM VCTS SCT025CB BKN040
     FM310200 VRB03KT P6SM SCT025 BKN250
     FM310300 00000KT 5SM BR SCT008 BKN250
     FM311000 00000KT 2SM BR SCT001 BKN015=

USA.gov is the U.S. government's official web portal to all federal, state and local government web resources and services.